sensor_id;sensor_type;location;lat;lon;timestamp;P1;durP1;ratioP1;P2;durP2;ratioP2
74124;SDS011;62475;52.192;5.396;2023-04-01T00:00:25;21.67;;;9.68;;
74124;SDS011;62475;52.192;5.396;2023-04-01T00:02:50;24.90;;;9.40;;
74124;SDS011;62475;52.192;5.396;2023-04-01T00:05:16;24.05;;;9.65;;
74124;SDS011;62475;52.192;5.396;2023-04-01T00:07:41;24.73;;;9.23;;
74124;SDS011;62475;52.192;5.396;2023-04-01T00:10:08;23.65;;;8.88;;
74124;SDS011;62475;52.192;5.396;2023-04-01T00:12:35;23.25;;;11.02;;
74124;SDS011;62475;52.192;5.396;2023-04-01T00:15:01;23.30;;;8.90;;
74124;SDS011;62475;52.192;5.396;2023-04-01T00:17:30;29.85;;;9.48;;
74124;SDS011;62475;52.192;5.396;2023-04-01T00:19:56;27.23;;;10.00;;
74124;SDS011;62475;52.192;5.396;2023-04-01T00:22:22;31.40;;;10.88;;
74124;SDS011;62475;52.192;5.396;2023-04-01T00:24:48;25.40;;;9.93;;
74124;SDS011;62475;52.192;5.396;2023-04-01T00:27:14;33.67;;;11.52;;
74124;SDS011;62475;52.192;5.396;2023-04-01T00:29:43;29.13;;;11.95;;
74124;SDS011;62475;52.192;5.396;2023-04-01T00:32:12;33.08;;;11.77;;
74124;SDS011;62475;52.192;5.396;2023-04-01T00:34:38;27.88;;;10.77;;
74124;SDS011;62475;52.192;5.396;2023-04-01T00:37:04;22.70;;;9.82;;
74124;SDS011;62475;52.192;5.396;2023-04-01T00:39:32;27.00;;;9.57;;
74124;SDS011;62475;52.192;5.396;2023-04-01T00:41:59;27.27;;;8.85;;
74124;SDS011;62475;52.192;5.396;2023-04-01T00:44:26;19.45;;;8.73;;
74124;SDS011;62475;52.192;5.396;2023-04-01T00:46:54;27.70;;;9.70;;
74124;SDS011;62475;52.192;5.396;2023-04-01T00:49:25;27.35;;;9.50;;
74124;SDS011;62475;52.192;5.396;2023-04-01T00:51:54;27.63;;;9.65;;
74124;SDS011;62475;52.192;5.396;2023-04-01T00:54:24;22.33;;;8.88;;
74124;SDS011;62475;52.192;5.396;2023-04-01T00:56:56;28.45;;;10.05;;
74124;SDS011;62475;52.192;5.396;2023-04-01T00:59:26;30.10;;;11.13;;
74124;SDS011;62475;52.192;5.396;2023-04-01T01:01:56;34.78;;;11.38;;
74124;SDS011;62475;52.192;5.396;2023-04-01T01:04:23;33.92;;;11.82;;
74124;SDS011;62475;52.192;5.396;2023-04-01T01:07:03;31.98;;;11.95;;
74124;SDS011;62475;52.192;5.396;2023-04-01T01:09:43;35.40;;;12.57;;
74124;SDS011;62475;52.192;5.396;2023-04-01T01:12:29;38.25;;;13.55;;
74124;SDS011;62475;52.192;5.396;2023-04-01T01:18:03;29.85;;;11.80;;
74124;SDS011;62475;52.192;5.396;2023-04-01T01:20:56;27.92;;;11.80;;
74124;SDS011;62475;52.192;5.396;2023-04-01T01:26:30;28.20;;;11.13;;
74124;SDS011;62475;52.192;5.396;2023-04-01T01:31:55;34.47;;;11.52;;
74124;SDS011;62475;52.192;5.396;2023-04-01T01:37:28;21.52;;;8.35;;
74124;SDS011;62475;52.192;5.396;2023-04-01T01:39:56;23.63;;;7.82;;
74124;SDS011;62475;52.192;5.396;2023-04-01T01:42:26;14.50;;;6.63;;
74124;SDS011;62475;52.192;5.396;2023-04-01T01:44:56;12.95;;;5.57;;
74124;SDS011;62475;52.192;5.396;2023-04-01T01:47:25;20.38;;;7.40;;
74124;SDS011;62475;52.192;5.396;2023-04-01T01:49:52;15.70;;;7.28;;
74124;SDS011;62475;52.192;5.396;2023-04-01T01:52:21;15.73;;;5.97;;
74124;SDS011;62475;52.192;5.396;2023-04-01T01:54:48;14.95;;;6.25;;
74124;SDS011;62475;52.192;5.396;2023-04-01T01:57:19;15.18;;;5.82;;
74124;SDS011;62475;52.192;5.396;2023-04-01T01:59:48;13.10;;;5.65;;
74124;SDS011;62475;52.192;5.396;2023-04-01T02:02:17;14.23;;;6.32;;
74124;SDS011;62475;52.192;5.396;2023-04-01T02:04:44;21.02;;;7.00;;
74124;SDS011;62475;52.192;5.396;2023-04-01T02:07:13;19.17;;;5.88;;
74124;SDS011;62475;52.192;5.396;2023-04-01T02:09:45;12.88;;;5.30;;
74124;SDS011;62475;52.192;5.396;2023-04-01T02:12:11;14.40;;;5.60;;
74124;SDS011;62475;52.192;5.396;2023-04-01T02:14:43;12.90;;;5.55;;
74124;SDS011;62475;52.192;5.396;2023-04-01T02:17:16;13.88;;;5.38;;
74124;SDS011;62475;52.192;5.396;2023-04-01T02:19:47;17.58;;;6.85;;
74124;SDS011;62475;52.192;5.396;2023-04-01T02:22:18;13.07;;;5.93;;
74124;SDS011;62475;52.192;5.396;2023-04-01T02:25:01;16.58;;;6.60;;
74124;SDS011;62475;52.192;5.396;2023-04-01T02:27:30;13.40;;;5.75;;
74124;SDS011;62475;52.192;5.396;2023-04-01T02:29:56;15.80;;;5.68;;
74124;SDS011;62475;52.192;5.396;2023-04-01T02:32:23;15.98;;;5.68;;
74124;SDS011;62475;52.192;5.396;2023-04-01T02:34:49;15.95;;;6.82;;
74124;SDS011;62475;52.192;5.396;2023-04-01T02:37:15;12.63;;;5.60;;
74124;SDS011;62475;52.192;5.396;2023-04-01T02:39:41;15.85;;;6.47;;
74124;SDS011;62475;52.192;5.396;2023-04-01T02:42:08;14.07;;;5.20;;
74124;SDS011;62475;52.192;5.396;2023-04-01T02:44:33;15.40;;;6.00;;
74124;SDS011;62475;52.192;5.396;2023-04-01T02:46:59;11.45;;;5.15;;
74124;SDS011;62475;52.192;5.396;2023-04-01T02:49:26;12.30;;;5.70;;
74124;SDS011;62475;52.192;5.396;2023-04-01T02:51:51;15.38;;;6.15;;
74124;SDS011;62475;52.192;5.396;2023-04-01T02:54:17;13.63;;;5.60;;
74124;SDS011;62475;52.192;5.396;2023-04-01T02:56:43;15.77;;;5.95;;
74124;SDS011;62475;52.192;5.396;2023-04-01T02:59:09;13.20;;;5.15;;
74124;SDS011;62475;52.192;5.396;2023-04-01T03:01:34;13.65;;;6.28;;
74124;SDS011;62475;52.192;5.396;2023-04-01T03:04:00;16.45;;;6.38;;
74124;SDS011;62475;52.192;5.396;2023-04-01T03:06:25;10.95;;;4.70;;
74124;SDS011;62475;52.192;5.396;2023-04-01T03:08:50;14.02;;;5.47;;
74124;SDS011;62475;52.192;5.396;2023-04-01T03:11:16;11.73;;;4.93;;
74124;SDS011;62475;52.192;5.396;2023-04-01T03:13:41;9.95;;;4.70;;
74124;SDS011;62475;52.192;5.396;2023-04-01T03:16:06;12.95;;;4.13;;
74124;SDS011;62475;52.192;5.396;2023-04-01T03:18:32;9.85;;;4.57;;
74124;SDS011;62475;52.192;5.396;2023-04-01T03:20:57;10.73;;;4.32;;
74124;SDS011;62475;52.192;5.396;2023-04-01T03:23:39;13.70;;;4.82;;
74124;SDS011;62475;52.192;5.396;2023-04-01T03:26:04;15.90;;;5.97;;
74124;SDS011;62475;52.192;5.396;2023-04-01T03:28:30;12.77;;;6.03;;
74124;SDS011;62475;52.192;5.396;2023-04-01T03:30:55;24.67;;;6.70;;
74124;SDS011;62475;52.192;5.396;2023-04-01T03:33:20;22.50;;;8.50;;
74124;SDS011;62475;52.192;5.396;2023-04-01T03:35:45;20.87;;;7.87;;
74124;SDS011;62475;52.192;5.396;2023-04-01T03:38:11;25.55;;;9.60;;
74124;SDS011;62475;52.192;5.396;2023-04-01T03:40:36;31.83;;;9.80;;
74124;SDS011;62475;52.192;5.396;2023-04-01T03:43:03;30.15;;;9.40;;
74124;SDS011;62475;52.192;5.396;2023-04-01T03:45:31;32.78;;;11.70;;
74124;SDS011;62475;52.192;5.396;2023-04-01T03:47:57;33.55;;;10.63;;
74124;SDS011;62475;52.192;5.396;2023-04-01T03:50:22;38.53;;;12.07;;
74124;SDS011;62475;52.192;5.396;2023-04-01T03:52:49;47.67;;;14.13;;
74124;SDS011;62475;52.192;5.396;2023-04-01T03:55:16;48.22;;;13.15;;
74124;SDS011;62475;52.192;5.396;2023-04-01T03:57:42;56.33;;;15.38;;
74124;SDS011;62475;52.192;5.396;2023-04-01T04:00:08;50.40;;;14.30;;
74124;SDS011;62475;52.192;5.396;2023-04-01T04:02:34;54.80;;;15.00;;
74124;SDS011;62475;52.192;5.396;2023-04-01T04:05:00;52.40;;;13.50;;
74124;SDS011;62475;52.192;5.396;2023-04-01T04:07:25;45.65;;;14.05;;
74124;SDS011;62475;52.192;5.396;2023-04-01T04:09:51;60.53;;;13.70;;
74124;SDS011;62475;52.192;5.396;2023-04-01T04:12:16;47.13;;;13.33;;
74124;SDS011;62475;52.192;5.396;2023-04-01T04:14:41;65.55;;;14.35;;
74124;SDS011;62475;52.192;5.396;2023-04-01T04:17:07;70.13;;;13.43;;
74124;SDS011;62475;52.192;5.396;2023-04-01T04:19:38;57.55;;;12.60;;
74124;SDS011;62475;52.192;5.396;2023-04-01T04:22:04;56.10;;;13.65;;
74124;SDS011;62475;52.192;5.396;2023-04-01T04:24:29;53.13;;;11.88;;
74124;SDS011;62475;52.192;5.396;2023-04-01T04:26:54;54.17;;;12.73;;
74124;SDS011;62475;52.192;5.396;2023-04-01T04:29:19;56.20;;;12.53;;
74124;SDS011;62475;52.192;5.396;2023-04-01T04:31:45;53.20;;;12.77;;
74124;SDS011;62475;52.192;5.396;2023-04-01T04:34:10;51.80;;;12.00;;
74124;SDS011;62475;52.192;5.396;2023-04-01T04:36:35;44.22;;;10.85;;
74124;SDS011;62475;52.192;5.396;2023-04-01T04:39:01;38.75;;;9.40;;
74124;SDS011;62475;52.192;5.396;2023-04-01T04:41:28;38.17;;;8.52;;
74124;SDS011;62475;52.192;5.396;2023-04-01T04:43:54;38.20;;;10.25;;
74124;SDS011;62475;52.192;5.396;2023-04-01T04:46:21;34.40;;;9.00;;
74124;SDS011;62475;52.192;5.396;2023-04-01T04:48:47;32.47;;;8.82;;
74124;SDS011;62475;52.192;5.396;2023-04-01T04:51:16;35.60;;;8.10;;
74124;SDS011;62475;52.192;5.396;2023-04-01T04:53:43;28.58;;;6.60;;
74124;SDS011;62475;52.192;5.396;2023-04-01T04:56:09;29.90;;;7.30;;
74124;SDS011;62475;52.192;5.396;2023-04-01T04:58:34;23.60;;;7.18;;
74124;SDS011;62475;52.192;5.396;2023-04-01T05:01:09;25.23;;;5.65;;
74124;SDS011;62475;52.192;5.396;2023-04-01T05:03:37;27.98;;;8.10;;
74124;SDS011;62475;52.192;5.396;2023-04-01T05:06:03;23.70;;;6.70;;
74124;SDS011;62475;52.192;5.396;2023-04-01T05:08:30;27.67;;;7.55;;
74124;SDS011;62475;52.192;5.396;2023-04-01T05:10:55;29.55;;;7.55;;
74124;SDS011;62475;52.192;5.396;2023-04-01T05:13:20;28.85;;;8.45;;
74124;SDS011;62475;52.192;5.396;2023-04-01T05:15:46;25.73;;;7.53;;
74124;SDS011;62475;52.192;5.396;2023-04-01T05:18:11;26.08;;;7.70;;
74124;SDS011;62475;52.192;5.396;2023-04-01T05:20:38;33.90;;;8.23;;
74124;SDS011;62475;52.192;5.396;2023-04-01T05:23:05;27.58;;;7.72;;
74124;SDS011;62475;52.192;5.396;2023-04-01T05:25:30;25.10;;;7.05;;
74124;SDS011;62475;52.192;5.396;2023-04-01T05:27:56;25.77;;;6.40;;
74124;SDS011;62475;52.192;5.396;2023-04-01T05:30:21;27.25;;;8.27;;
74124;SDS011;62475;52.192;5.396;2023-04-01T05:32:46;25.80;;;6.93;;
74124;SDS011;62475;52.192;5.396;2023-04-01T05:35:14;23.85;;;6.55;;
74124;SDS011;62475;52.192;5.396;2023-04-01T05:37:40;24.08;;;6.90;;
74124;SDS011;62475;52.192;5.396;2023-04-01T05:40:05;27.50;;;6.60;;
74124;SDS011;62475;52.192;5.396;2023-04-01T05:42:31;21.05;;;7.15;;
74124;SDS011;62475;52.192;5.396;2023-04-01T05:44:56;23.42;;;6.53;;
74124;SDS011;62475;52.192;5.396;2023-04-01T05:47:22;26.35;;;6.32;;
74124;SDS011;62475;52.192;5.396;2023-04-01T05:49:47;19.65;;;5.57;;
74124;SDS011;62475;52.192;5.396;2023-04-01T05:52:13;19.63;;;5.43;;
74124;SDS011;62475;52.192;5.396;2023-04-01T05:54:38;22.05;;;5.63;;
74124;SDS011;62475;52.192;5.396;2023-04-01T05:57:04;17.40;;;5.00;;
74124;SDS011;62475;52.192;5.396;2023-04-01T05:59:29;26.65;;;6.72;;
74124;SDS011;62475;52.192;5.396;2023-04-01T06:01:57;20.83;;;5.93;;
74124;SDS011;62475;52.192;5.396;2023-04-01T06:04:23;24.60;;;6.72;;
74124;SDS011;62475;52.192;5.396;2023-04-01T06:06:49;25.10;;;7.97;;
74124;SDS011;62475;52.192;5.396;2023-04-01T06:09:15;26.08;;;6.22;;
74124;SDS011;62475;52.192;5.396;2023-04-01T06:17:47;26.35;;;6.75;;
74124;SDS011;62475;52.192;5.396;2023-04-01T06:28:35;23.98;;;7.00;;
74124;SDS011;62475;52.192;5.396;2023-04-01T06:34:25;22.95;;;6.22;;
74124;SDS011;62475;52.192;5.396;2023-04-01T06:43:06;12.25;;;3.30;;
74124;SDS011;62475;52.192;5.396;2023-04-01T06:46:00;8.57;;;2.75;;
74124;SDS011;62475;52.192;5.396;2023-04-01T06:54:42;7.45;;;2.28;;
74124;SDS011;62475;52.192;5.396;2023-04-01T07:00:05;9.07;;;2.85;;
74124;SDS011;62475;52.192;5.396;2023-04-01T07:02:43;11.45;;;3.58;;
74124;SDS011;62475;52.192;5.396;2023-04-01T07:05:14;9.65;;;3.22;;
74124;SDS011;62475;52.192;5.396;2023-04-01T07:10:19;11.23;;;3.88;;
74124;SDS011;62475;52.192;5.396;2023-04-01T07:12:58;12.57;;;4.63;;
74124;SDS011;62475;52.192;5.396;2023-04-01T07:15:39;9.93;;;3.85;;
74124;SDS011;62475;52.192;5.396;2023-04-01T07:18:18;12.80;;;4.68;;
74124;SDS011;62475;52.192;5.396;2023-04-01T07:20:48;16.10;;;4.97;;
74124;SDS011;62475;52.192;5.396;2023-04-01T07:23:26;15.57;;;5.45;;
74124;SDS011;62475;52.192;5.396;2023-04-01T07:25:59;15.95;;;5.65;;
74124;SDS011;62475;52.192;5.396;2023-04-01T07:28:30;16.00;;;5.80;;
74124;SDS011;62475;52.192;5.396;2023-04-01T07:31:07;19.73;;;6.30;;
74124;SDS011;62475;52.192;5.396;2023-04-01T07:33:46;20.45;;;6.65;;
74124;SDS011;62475;52.192;5.396;2023-04-01T07:36:24;20.45;;;6.60;;
74124;SDS011;62475;52.192;5.396;2023-04-01T07:42:09;19.38;;;6.68;;
74124;SDS011;62475;52.192;5.396;2023-04-01T07:50:25;23.25;;;6.65;;
74124;SDS011;62475;52.192;5.396;2023-04-01T07:53:05;21.52;;;7.60;;
74124;SDS011;62475;52.192;5.396;2023-04-01T07:56:03;22.38;;;7.25;;
74124;SDS011;62475;52.192;5.396;2023-04-01T08:01:31;20.63;;;7.88;;
74124;SDS011;62475;52.192;5.396;2023-04-01T08:09:43;18.92;;;6.85;;
74124;SDS011;62475;52.192;5.396;2023-04-01T08:12:29;23.52;;;7.28;;
74124;SDS011;62475;52.192;5.396;2023-04-01T08:15:19;25.88;;;7.20;;
74124;SDS011;62475;52.192;5.396;2023-04-01T08:17:54;19.20;;;7.05;;
74124;SDS011;62475;52.192;5.396;2023-04-01T08:23:05;23.02;;;8.15;;
74124;SDS011;62475;52.192;5.396;2023-04-01T08:26:01;21.95;;;7.07;;
74124;SDS011;62475;52.192;5.396;2023-04-01T08:28:43;22.42;;;6.85;;
74124;SDS011;62475;52.192;5.396;2023-04-01T08:31:16;21.50;;;7.10;;
74124;SDS011;62475;52.192;5.396;2023-04-01T08:33:48;26.83;;;7.78;;
74124;SDS011;62475;52.192;5.396;2023-04-01T08:36:15;21.75;;;7.60;;
74124;SDS011;62475;52.192;5.396;2023-04-01T08:38:50;23.08;;;7.38;;
74124;SDS011;62475;52.192;5.396;2023-04-01T08:47:03;20.92;;;7.35;;
74124;SDS011;62475;52.192;5.396;2023-04-01T08:49:56;21.27;;;7.85;;
74124;SDS011;62475;52.192;5.396;2023-04-01T08:55:37;24.00;;;9.35;;
74124;SDS011;62475;52.192;5.396;2023-04-01T08:58:18;22.10;;;7.82;;
74124;SDS011;62475;52.192;5.396;2023-04-01T09:00:54;23.38;;;8.32;;
74124;SDS011;62475;52.192;5.396;2023-04-01T09:03:36;22.13;;;8.60;;
74124;SDS011;62475;52.192;5.396;2023-04-01T09:30:44;17.67;;;7.70;;
74124;SDS011;62475;52.192;5.396;2023-04-01T09:33:40;20.02;;;7.78;;
74124;SDS011;62475;52.192;5.396;2023-04-01T09:39:37;17.25;;;6.68;;
74124;SDS011;62475;52.192;5.396;2023-04-01T09:44:58;17.88;;;7.15;;
74124;SDS011;62475;52.192;5.396;2023-04-01T09:50:33;16.55;;;7.95;;
74124;SDS011;62475;52.192;5.396;2023-04-01T09:53:12;16.42;;;6.78;;
74124;SDS011;62475;52.192;5.396;2023-04-01T10:04:26;15.18;;;7.40;;
74124;SDS011;62475;52.192;5.396;2023-04-01T10:07:27;13.35;;;6.05;;
74124;SDS011;62475;52.192;5.396;2023-04-01T10:15:54;12.77;;;6.68;;
74124;SDS011;62475;52.192;5.396;2023-04-01T10:41:36;14.15;;;6.10;;
74124;SDS011;62475;52.192;5.396;2023-04-01T11:10:17;5.20;;;2.40;;
74124;SDS011;62475;52.192;5.396;2023-04-01T11:13:25;5.20;;;2.30;;
74124;SDS011;62475;52.192;5.396;2023-04-01T11:16:01;4.97;;;2.00;;
74124;SDS011;62475;52.192;5.396;2023-04-01T11:19:14;5.18;;;2.50;;
74124;SDS011;62475;52.192;5.396;2023-04-01T11:34:02;3.78;;;1.40;;
74124;SDS011;62475;52.192;5.396;2023-04-01T11:39:24;3.22;;;1.73;;
74124;SDS011;62475;52.192;5.396;2023-04-01T11:48:03;6.32;;;2.72;;
74124;SDS011;62475;52.192;5.396;2023-04-01T11:50:46;6.80;;;3.08;;
74124;SDS011;62475;52.192;5.396;2023-04-01T11:53:47;9.15;;;4.28;;
74124;SDS011;62475;52.192;5.396;2023-04-01T11:56:27;9.82;;;4.07;;
74124;SDS011;62475;52.192;5.396;2023-04-01T12:07:53;13.55;;;5.97;;
74124;SDS011;62475;52.192;5.396;2023-04-01T12:10:51;13.10;;;5.90;;
74124;SDS011;62475;52.192;5.396;2023-04-01T12:36:46;17.45;;;7.45;;
74124;SDS011;62475;52.192;5.396;2023-04-01T12:42:12;18.65;;;8.48;;
74124;SDS011;62475;52.192;5.396;2023-04-01T12:45:18;18.95;;;8.63;;
74124;SDS011;62475;52.192;5.396;2023-04-01T12:50:59;23.40;;;10.00;;
74124;SDS011;62475;52.192;5.396;2023-04-01T12:56:14;18.67;;;8.23;;
74124;SDS011;62475;52.192;5.396;2023-04-01T12:59:00;15.15;;;7.07;;
74124;SDS011;62475;52.192;5.396;2023-04-01T13:01:52;11.23;;;5.53;;
74124;SDS011;62475;52.192;5.396;2023-04-01T13:07:26;13.20;;;5.00;;
74124;SDS011;62475;52.192;5.396;2023-04-01T13:10:03;12.30;;;5.85;;
74124;SDS011;62475;52.192;5.396;2023-04-01T13:18:39;13.65;;;5.72;;
74124;SDS011;62475;52.192;5.396;2023-04-01T13:21:30;13.48;;;5.88;;
74124;SDS011;62475;52.192;5.396;2023-04-01T13:27:13;14.75;;;5.40;;
74124;SDS011;62475;52.192;5.396;2023-04-01T13:30:10;14.23;;;5.50;;
74124;SDS011;62475;52.192;5.396;2023-04-01T13:41:10;13.32;;;6.05;;
74124;SDS011;62475;52.192;5.396;2023-04-01T13:43:49;14.38;;;6.45;;
74124;SDS011;62475;52.192;5.396;2023-04-01T13:49:33;18.33;;;6.45;;
74124;SDS011;62475;52.192;5.396;2023-04-01T13:52:24;18.33;;;7.40;;
74124;SDS011;62475;52.192;5.396;2023-04-01T13:55:22;15.73;;;6.22;;
74124;SDS011;62475;52.192;5.396;2023-04-01T13:58:19;16.80;;;6.05;;
74124;SDS011;62475;52.192;5.396;2023-04-01T14:01:13;11.45;;;4.60;;
74124;SDS011;62475;52.192;5.396;2023-04-01T14:06:23;14.32;;;6.07;;
74124;SDS011;62475;52.192;5.396;2023-04-01T14:09:19;12.57;;;5.72;;
74124;SDS011;62475;52.192;5.396;2023-04-01T14:29:02;9.50;;;4.97;;
74124;SDS011;62475;52.192;5.396;2023-04-01T14:32:07;8.35;;;4.35;;
74124;SDS011;62475;52.192;5.396;2023-04-01T14:40:45;8.68;;;4.55;;
74124;SDS011;62475;52.192;5.396;2023-04-01T14:49:15;7.72;;;4.25;;
74124;SDS011;62475;52.192;5.396;2023-04-01T14:51:46;7.55;;;3.47;;
74124;SDS011;62475;52.192;5.396;2023-04-01T14:54:21;7.95;;;3.85;;
74124;SDS011;62475;52.192;5.396;2023-04-01T14:57:16;6.85;;;3.88;;
74124;SDS011;62475;52.192;5.396;2023-04-01T15:00:16;8.02;;;4.45;;
74124;SDS011;62475;52.192;5.396;2023-04-01T15:02:55;6.25;;;3.65;;
74124;SDS011;62475;52.192;5.396;2023-04-01T15:08:17;7.00;;;3.50;;
74124;SDS011;62475;52.192;5.396;2023-04-01T15:16:13;7.60;;;4.05;;
74124;SDS011;62475;52.192;5.396;2023-04-01T15:37:55;5.97;;;2.92;;
74124;SDS011;62475;52.192;5.396;2023-04-01T15:40:30;5.88;;;3.30;;
74124;SDS011;62475;52.192;5.396;2023-04-01T15:43:16;6.55;;;3.25;;
74124;SDS011;62475;52.192;5.396;2023-04-01T15:48:39;6.28;;;3.15;;
74124;SDS011;62475;52.192;5.396;2023-04-01T15:51:31;3.85;;;2.25;;
74124;SDS011;62475;52.192;5.396;2023-04-01T15:57:35;4.82;;;3.00;;
74124;SDS011;62475;52.192;5.396;2023-04-01T16:08:11;5.00;;;2.72;;
74124;SDS011;62475;52.192;5.396;2023-04-01T16:10:54;7.00;;;3.33;;
74124;SDS011;62475;52.192;5.396;2023-04-01T16:22:30;4.53;;;2.95;;
74124;SDS011;62475;52.192;5.396;2023-04-01T16:25:09;5.07;;;2.67;;
74124;SDS011;62475;52.192;5.396;2023-04-01T16:30:55;6.03;;;3.42;;
74124;SDS011;62475;52.192;5.396;2023-04-01T16:44:53;8.30;;;4.35;;
74124;SDS011;62475;52.192;5.396;2023-04-01T16:47:49;8.05;;;4.30;;
74124;SDS011;62475;52.192;5.396;2023-04-01T16:50:22;6.35;;;4.00;;
74124;SDS011;62475;52.192;5.396;2023-04-01T16:53:08;6.28;;;3.80;;
74124;SDS011;62475;52.192;5.396;2023-04-01T16:58:34;5.22;;;3.25;;
74124;SDS011;62475;52.192;5.396;2023-04-01T17:01:12;5.88;;;3.72;;
74124;SDS011;62475;52.192;5.396;2023-04-01T17:03:45;6.47;;;3.67;;
74124;SDS011;62475;52.192;5.396;2023-04-01T17:22:54;6.68;;;3.67;;
74124;SDS011;62475;52.192;5.396;2023-04-01T17:28:32;6.97;;;3.72;;
74124;SDS011;62475;52.192;5.396;2023-04-01T17:45:02;6.30;;;3.88;;
74124;SDS011;62475;52.192;5.396;2023-04-01T17:53:46;6.28;;;3.17;;
74124;SDS011;62475;52.192;5.396;2023-04-01T17:59:16;6.20;;;3.90;;
74124;SDS011;62475;52.192;5.396;2023-04-01T18:01:51;4.55;;;3.25;;
74124;SDS011;62475;52.192;5.396;2023-04-01T18:13:11;6.75;;;4.55;;
74124;SDS011;62475;52.192;5.396;2023-04-01T18:16:02;6.43;;;3.38;;
74124;SDS011;62475;52.192;5.396;2023-04-01T18:18:50;6.85;;;3.90;;
74124;SDS011;62475;52.192;5.396;2023-04-01T18:21:30;6.95;;;4.38;;
74124;SDS011;62475;52.192;5.396;2023-04-01T18:24:28;7.60;;;5.20;;
74124;SDS011;62475;52.192;5.396;2023-04-01T18:29:41;5.25;;;4.10;;
74124;SDS011;62475;52.192;5.396;2023-04-01T18:32:22;6.45;;;3.78;;
74124;SDS011;62475;52.192;5.396;2023-04-01T18:34:54;9.23;;;5.40;;
74124;SDS011;62475;52.192;5.396;2023-04-01T18:37:44;8.73;;;5.72;;
74124;SDS011;62475;52.192;5.396;2023-04-01T18:45:41;7.03;;;4.97;;
74124;SDS011;62475;52.192;5.396;2023-04-01T18:48:30;8.88;;;5.40;;
74124;SDS011;62475;52.192;5.396;2023-04-01T18:51:33;6.90;;;4.82;;
74124;SDS011;62475;52.192;5.396;2023-04-01T18:54:30;9.40;;;5.35;;
74124;SDS011;62475;52.192;5.396;2023-04-01T18:57:10;8.35;;;4.68;;
74124;SDS011;62475;52.192;5.396;2023-04-01T18:59:45;6.72;;;3.88;;
74124;SDS011;62475;52.192;5.396;2023-04-01T19:02:40;5.90;;;4.13;;
74124;SDS011;62475;52.192;5.396;2023-04-01T19:05:13;6.53;;;4.82;;
74124;SDS011;62475;52.192;5.396;2023-04-01T19:07:51;5.18;;;4.22;;
74124;SDS011;62475;52.192;5.396;2023-04-01T19:15:48;10.02;;;5.70;;
74124;SDS011;62475;52.192;5.396;2023-04-01T19:24:14;8.82;;;5.43;;
74124;SDS011;62475;52.192;5.396;2023-04-01T19:26:47;11.52;;;6.57;;
74124;SDS011;62475;52.192;5.396;2023-04-01T19:32:43;11.90;;;7.20;;
74124;SDS011;62475;52.192;5.396;2023-04-01T19:35:23;8.45;;;6.05;;
74124;SDS011;62475;52.192;5.396;2023-04-01T19:38:04;9.82;;;6.15;;
74124;SDS011;62475;52.192;5.396;2023-04-01T19:40:55;9.10;;;6.13;;
74124;SDS011;62475;52.192;5.396;2023-04-01T19:43:31;11.00;;;6.57;;
74124;SDS011;62475;52.192;5.396;2023-04-01T19:52:35;15.55;;;6.43;;
74124;SDS011;62475;52.192;5.396;2023-04-01T19:57:41;10.23;;;6.18;;
74124;SDS011;62475;52.192;5.396;2023-04-01T20:00:33;12.35;;;7.22;;
74124;SDS011;62475;52.192;5.396;2023-04-01T20:03:07;11.60;;;6.97;;
74124;SDS011;62475;52.192;5.396;2023-04-01T20:05:53;14.02;;;7.45;;
74124;SDS011;62475;52.192;5.396;2023-04-01T20:13:39;10.00;;;6.77;;
74124;SDS011;62475;52.192;5.396;2023-04-01T20:16:12;11.77;;;7.03;;
74124;SDS011;62475;52.192;5.396;2023-04-01T20:21:31;14.52;;;8.27;;
74124;SDS011;62475;52.192;5.396;2023-04-01T20:24:14;13.82;;;7.50;;
74124;SDS011;62475;52.192;5.396;2023-04-01T20:27:15;11.52;;;6.63;;
74124;SDS011;62475;52.192;5.396;2023-04-01T20:29:41;12.93;;;6.88;;
74124;SDS011;62475;52.192;5.396;2023-04-01T20:37:40;11.95;;;6.32;;
74124;SDS011;62475;52.192;5.396;2023-04-01T20:40:26;10.00;;;6.50;;
74124;SDS011;62475;52.192;5.396;2023-04-01T20:45:50;10.15;;;6.55;;
74124;SDS011;62475;52.192;5.396;2023-04-01T20:54:17;13.95;;;6.90;;
74124;SDS011;62475;52.192;5.396;2023-04-01T21:19:02;10.38;;;6.55;;
74124;SDS011;62475;52.192;5.396;2023-04-01T21:21:54;14.07;;;7.53;;
74124;SDS011;62475;52.192;5.396;2023-04-01T21:36:15;12.27;;;7.10;;
74124;SDS011;62475;52.192;5.396;2023-04-01T21:50:09;16.67;;;9.20;;
74124;SDS011;62475;52.192;5.396;2023-04-01T22:07:23;13.60;;;7.68;;
74124;SDS011;62475;52.192;5.396;2023-04-01T22:10:14;15.45;;;7.97;;
74124;SDS011;62475;52.192;5.396;2023-04-01T22:18:22;13.80;;;7.90;;
74124;SDS011;62475;52.192;5.396;2023-04-01T22:26:35;13.13;;;6.68;;
74124;SDS011;62475;52.192;5.396;2023-04-01T22:29:16;17.15;;;8.63;;
74124;SDS011;62475;52.192;5.396;2023-04-01T22:32:05;15.25;;;8.43;;
74124;SDS011;62475;52.192;5.396;2023-04-01T22:37:31;15.80;;;8.43;;
74124;SDS011;62475;52.192;5.396;2023-04-01T22:40:44;15.70;;;8.95;;
74124;SDS011;62475;52.192;5.396;2023-04-01T22:43:19;12.32;;;7.72;;
74124;SDS011;62475;52.192;5.396;2023-04-01T22:45:58;14.02;;;8.48;;
74124;SDS011;62475;52.192;5.396;2023-04-01T22:48:57;19.70;;;8.07;;
74124;SDS011;62475;52.192;5.396;2023-04-01T22:51:31;13.68;;;8.30;;
74124;SDS011;62475;52.192;5.396;2023-04-01T22:56:41;17.55;;;9.32;;
74124;SDS011;62475;52.192;5.396;2023-04-01T23:02:14;11.68;;;7.38;;
74124;SDS011;62475;52.192;5.396;2023-04-01T23:04:42;15.63;;;9.32;;
74124;SDS011;62475;52.192;5.396;2023-04-01T23:09:49;12.40;;;7.80;;
74124;SDS011;62475;52.192;5.396;2023-04-01T23:12:16;23.42;;;9.80;;
74124;SDS011;62475;52.192;5.396;2023-04-01T23:14:46;16.35;;;9.57;;
74124;SDS011;62475;52.192;5.396;2023-04-01T23:22:34;21.00;;;9.18;;
74124;SDS011;62475;52.192;5.396;2023-04-01T23:25:15;19.02;;;9.88;;
74124;SDS011;62475;52.192;5.396;2023-04-01T23:27:50;15.27;;;7.95;;
74124;SDS011;62475;52.192;5.396;2023-04-01T23:35:48;16.40;;;9.45;;
74124;SDS011;62475;52.192;5.396;2023-04-01T23:38:16;19.45;;;8.32;;
74124;SDS011;62475;52.192;5.396;2023-04-01T23:40:43;16.27;;;9.70;;
74124;SDS011;62475;52.192;5.396;2023-04-01T23:45:40;17.60;;;10.30;;
74124;SDS011;62475;52.192;5.396;2023-04-01T23:48:10;20.27;;;9.90;;
74124;SDS011;62475;52.192;5.396;2023-04-01T23:50:40;16.52;;;9.18;;
74124;SDS011;62475;52.192;5.396;2023-04-01T23:53:16;18.83;;;9.55;;
74124;SDS011;62475;52.192;5.396;2023-04-01T23:55:49;16.90;;;9.30;;
74124;SDS011;62475;52.192;5.396;2023-04-01T23:58:23;15.68;;;9.13;;
